createdAt,value
2019-05-21T00:01:25.283Z,6.55
2019-05-21T00:03:55.153Z,6.53
2019-05-21T00:06:24.945Z,6.92
2019-05-21T00:08:54.738Z,6.20
2019-05-21T00:11:24.546Z,6.70
2019-05-21T00:13:54.377Z,6.80
2019-05-21T00:16:24.182Z,6.90
2019-05-21T00:18:53.979Z,6.95
2019-05-21T00:21:24.687Z,6.22
2019-05-21T00:23:54.395Z,6.58
2019-05-21T00:26:24.223Z,6.70
2019-05-21T00:29:29.840Z,7.05
2019-05-21T00:32:35.955Z,7.72
2019-05-21T00:35:51.082Z,7.80
2019-05-21T00:38:57.233Z,7.55
2019-05-21T00:42:03.692Z,8.10
2019-05-21T00:44:37.617Z,7.72
2019-05-21T00:47:10.810Z,8.30
2019-05-21T00:49:40.843Z,8.13
2019-05-21T00:52:10.759Z,8.25
2019-05-21T00:54:40.557Z,8.33
2019-05-21T00:57:10.379Z,8.78
2019-05-21T00:59:40.177Z,7.78
2019-05-21T01:02:09.915Z,8.98
2019-05-21T01:04:39.787Z,8.45
2019-05-21T01:07:09.666Z,8.13
2019-05-21T01:09:39.479Z,8.60
2019-05-21T01:12:09.402Z,7.22
2019-05-21T01:14:39.191Z,8.03
2019-05-21T01:17:08.927Z,7.42
2019-05-21T01:19:38.719Z,8.65
2019-05-21T01:22:08.619Z,8.15
2019-05-21T01:24:38.423Z,8.68
2019-05-21T01:27:08.178Z,8.68
2019-05-21T01:29:37.978Z,9.78
2019-05-21T01:32:07.883Z,9.40
2019-05-21T01:34:37.703Z,9.55
2019-05-21T01:37:07.479Z,9.55
2019-05-21T01:39:37.213Z,10.30
2019-05-21T01:42:07.115Z,10.98
2019-05-21T01:44:37.839Z,11.35
2019-05-21T01:47:07.576Z,11.15
2019-05-21T01:49:37.319Z,11.18
2019-05-21T01:52:07.149Z,11.53
2019-05-21T01:54:36.884Z,12.33
2019-05-21T01:57:06.766Z,11.53
2019-05-21T01:59:36.512Z,11.90
2019-05-21T02:02:08.095Z,12.75
2019-05-21T02:04:39.600Z,12.03
2019-05-21T02:07:10.444Z,11.70
2019-05-21T02:09:59.334Z,12.40
2019-05-21T02:12:29.199Z,13.08
2019-05-21T02:14:59.188Z,12.60
2019-05-21T02:17:28.987Z,13.10
2019-05-21T02:19:58.730Z,14.23
2019-05-21T02:22:28.541Z,13.98
2019-05-21T02:24:58.270Z,13.58
2019-05-21T02:27:28.087Z,15.32
2019-05-21T02:29:57.832Z,14.58
2019-05-21T02:32:27.629Z,13.30
2019-05-21T02:34:57.450Z,15.63
2019-05-21T02:37:27.248Z,15.70
2019-05-21T02:39:57.119Z,14.70
2019-05-21T02:42:27.006Z,16.40
2019-05-21T02:44:56.922Z,15.78
2019-05-21T02:47:26.704Z,15.43
2019-05-21T02:49:56.619Z,16.55
2019-05-21T02:52:26.721Z,15.30
2019-05-21T02:54:56.526Z,16.85
2019-05-21T02:57:38.061Z,15.75
2019-05-21T03:00:21.333Z,15.88
2019-05-21T03:02:51.129Z,16.20
2019-05-21T03:05:20.936Z,14.43
2019-05-21T03:07:50.832Z,14.15
2019-05-21T03:10:20.661Z,17.40
2019-05-21T03:12:51.119Z,14.85
2019-05-21T03:15:20.948Z,14.63
2019-05-21T03:17:50.817Z,15.10
2019-05-21T03:20:20.733Z,15.85
2019-05-21T03:22:50.593Z,15.13
2019-05-21T03:25:20.368Z,14.13
2019-05-21T03:27:50.168Z,14.75
2019-05-21T03:30:20.071Z,14.60
2019-05-21T03:32:49.824Z,14.13
2019-05-21T03:35:19.756Z,12.20
2019-05-21T03:37:49.538Z,14.30
2019-05-21T03:40:19.436Z,14.55
2019-05-21T03:42:49.325Z,14.78
2019-05-21T03:45:19.347Z,13.65
2019-05-21T03:47:49.276Z,13.70
2019-05-21T03:50:19.175Z,15.38
2019-05-21T03:52:49.100Z,14.03
2019-05-21T03:55:18.894Z,14.68
2019-05-21T03:57:48.811Z,15.00
2019-05-21T04:00:20.387Z,14.10
2019-05-21T04:02:50.279Z,14.63
2019-05-21T04:05:25.065Z,14.73
2019-05-21T04:07:55.311Z,14.85
2019-05-21T04:10:25.281Z,14.15
2019-05-21T04:13:08.448Z,13.83
2019-05-21T04:15:59.683Z,14.78
2019-05-21T04:18:35.309Z,14.98
2019-05-21T04:21:05.166Z,14.78
2019-05-21T04:23:34.971Z,13.20
2019-05-21T04:26:04.793Z,14.20
2019-05-21T04:28:34.670Z,13.85
2019-05-21T04:31:04.542Z,14.35
2019-05-21T04:33:34.269Z,14.53
2019-05-21T04:36:04.175Z,15.75
2019-05-21T04:38:33.906Z,14.10
2019-05-21T04:41:03.790Z,14.33
2019-05-21T04:43:33.608Z,14.35
2019-05-21T04:46:03.510Z,14.75
2019-05-21T04:48:33.336Z,13.72
2019-05-21T04:51:03.076Z,12.85
2019-05-21T04:53:32.812Z,14.33
2019-05-21T04:56:02.642Z,12.98
2019-05-21T04:58:32.440Z,12.13
2019-05-21T05:01:02.240Z,10.98
2019-05-21T05:03:31.976Z,12.03
2019-05-21T05:06:01.868Z,11.83
2019-05-21T05:08:31.688Z,10.28
2019-05-21T05:11:01.741Z,10.50
2019-05-21T05:13:31.605Z,10.63
2019-05-21T05:16:04.126Z,9.73
2019-05-21T05:18:33.073Z,10.20
2019-05-21T05:21:03.808Z,10.43
2019-05-21T05:23:33.740Z,10.20
2019-05-21T05:26:03.607Z,10.35
2019-05-21T05:28:33.402Z,9.80
2019-05-21T05:31:03.196Z,10.82
2019-05-21T05:33:33.007Z,9.33
2019-05-21T05:36:02.818Z,10.25
2019-05-21T05:38:32.897Z,8.93
2019-05-21T05:41:02.688Z,9.75
2019-05-21T05:43:32.444Z,9.83
2019-05-21T05:46:02.317Z,10.43
2019-05-21T05:48:33.757Z,10.48
2019-05-21T05:51:05.236Z,9.43
2019-05-21T05:53:54.050Z,9.68
2019-05-21T05:56:24.014Z,9.78
2019-05-21T05:58:53.910Z,9.53
2019-05-21T06:01:24.744Z,9.08
2019-05-21T06:03:54.637Z,8.50
2019-05-21T06:06:24.460Z,9.65
2019-05-21T06:08:54.239Z,8.20
2019-05-21T06:11:24.047Z,8.88
2019-05-21T06:13:53.841Z,8.88
2019-05-21T06:16:23.613Z,8.33
2019-05-21T06:18:53.490Z,7.55
2019-05-21T06:21:23.307Z,8.18
2019-05-21T06:23:53.162Z,8.20
2019-05-21T06:26:23.045Z,8.45
2019-05-21T06:28:52.911Z,7.70
2019-05-21T06:31:22.639Z,7.87
2019-05-21T06:33:52.480Z,7.53
2019-05-21T06:36:22.470Z,7.60
2019-05-21T06:38:52.317Z,7.65
2019-05-21T06:41:22.122Z,7.62
2019-05-21T06:43:51.850Z,7.60
2019-05-21T06:46:21.723Z,7.65
2019-05-21T06:48:51.530Z,6.75
2019-05-21T06:51:21.262Z,7.65
2019-05-21T06:53:50.986Z,6.97
2019-05-21T06:56:20.805Z,6.70
2019-05-21T06:58:50.694Z,7.15
2019-05-21T07:01:27.701Z,7.08
2019-05-21T07:03:51.942Z,6.90
2019-05-21T07:06:21.812Z,6.42
2019-05-21T07:08:51.611Z,6.28
2019-05-21T07:11:21.445Z,6.78
2019-05-21T07:13:51.316Z,6.50
2019-05-21T07:16:21.189Z,6.12
2019-05-21T07:18:50.915Z,6.45
2019-05-21T07:21:20.642Z,7.70
2019-05-21T07:23:50.385Z,7.42
2019-05-21T07:26:20.291Z,7.12
2019-05-21T07:28:50.331Z,8.00
2019-05-21T07:31:20.380Z,7.20
2019-05-21T07:33:50.094Z,7.15
2019-05-21T07:36:19.905Z,7.45
2019-05-21T07:38:53.759Z,7.17
2019-05-21T07:41:21.212Z,7.20
2019-05-21T07:43:51.162Z,8.30
2019-05-21T07:46:21.059Z,7.22
2019-05-21T07:48:50.821Z,7.00
2019-05-21T07:51:20.602Z,6.60
2019-05-21T07:53:50.320Z,7.20
2019-05-21T07:56:20.211Z,7.70
2019-05-21T07:58:50.008Z,7.05
2019-05-21T08:01:19.823Z,7.78
2019-05-21T08:03:49.609Z,7.15
2019-05-21T08:06:19.513Z,7.40
2019-05-21T08:08:49.290Z,5.60
2019-05-21T08:11:19.187Z,7.40
2019-05-21T08:13:48.902Z,6.37
2019-05-21T08:16:18.814Z,6.72
2019-05-21T08:18:48.548Z,6.47
2019-05-21T08:21:18.277Z,6.12
2019-05-21T08:23:48.080Z,6.20
2019-05-21T08:26:17.802Z,6.33
2019-05-21T08:28:47.787Z,6.83
2019-05-21T08:31:17.601Z,6.42
2019-05-21T08:33:47.420Z,6.20
2019-05-21T08:36:17.364Z,6.60
2019-05-21T08:38:47.171Z,7.22
2019-05-21T08:41:17.016Z,6.83
2019-05-21T08:43:47.000Z,5.92
2019-05-21T08:46:16.910Z,6.15
2019-05-21T08:48:46.837Z,6.15
2019-05-21T08:51:16.603Z,6.20
2019-05-21T08:53:46.499Z,6.75
2019-05-21T08:56:16.293Z,6.90
2019-05-21T08:58:46.098Z,6.55
2019-05-21T09:01:16.050Z,6.50
2019-05-21T09:03:45.843Z,6.92
2019-05-21T09:06:15.914Z,6.15
2019-05-21T09:08:45.839Z,5.55
2019-05-21T09:11:15.626Z,6.00
2019-05-21T09:13:45.430Z,5.83
2019-05-21T09:16:15.233Z,6.67
2019-05-21T09:18:45.120Z,6.12
2019-05-21T09:21:14.980Z,6.03
2019-05-21T09:23:44.860Z,6.03
2019-05-21T09:26:14.727Z,6.22
2019-05-21T09:28:45.591Z,5.70
2019-05-21T09:31:15.311Z,5.65
2019-05-21T09:33:45.048Z,6.37
2019-05-21T09:36:14.768Z,5.20
2019-05-21T09:38:45.790Z,6.25
2019-05-21T09:41:15.550Z,6.33
2019-05-21T09:43:45.377Z,6.70
2019-05-21T09:46:15.245Z,5.65
2019-05-21T09:48:45.056Z,6.53
2019-05-21T09:51:19.853Z,5.90
2019-05-21T09:53:46.452Z,6.28
2019-05-21T09:56:35.118Z,6.03
2019-05-21T09:59:28.838Z,5.90
2019-05-21T10:02:01.773Z,6.50
2019-05-21T10:04:31.582Z,7.15
2019-05-21T10:07:01.488Z,7.25
2019-05-21T10:09:31.439Z,6.78
2019-05-21T10:12:01.300Z,7.22
2019-05-21T10:14:34.085Z,6.90
2019-05-21T10:17:02.785Z,7.10
2019-05-21T10:19:32.659Z,7.10
2019-05-21T10:22:02.657Z,6.83
2019-05-21T10:24:32.630Z,6.70
2019-05-21T10:27:03.575Z,7.20
2019-05-21T10:29:33.588Z,7.20
2019-05-21T10:32:04.426Z,7.55
2019-05-21T10:34:34.324Z,6.35
2019-05-21T10:37:04.476Z,7.95
2019-05-21T10:39:34.339Z,6.47
2019-05-21T10:42:04.453Z,7.17
2019-05-21T10:44:34.423Z,6.87
2019-05-21T10:47:04.581Z,6.00
2019-05-21T10:49:34.455Z,5.72
2019-05-21T10:52:04.340Z,6.30
2019-05-21T10:54:34.140Z,6.50
2019-05-21T10:57:03.938Z,6.75
2019-05-21T10:59:33.750Z,7.03
2019-05-21T11:02:13.770Z,6.92
2019-05-21T11:05:05.834Z,6.35
2019-05-21T11:07:35.652Z,6.30
2019-05-21T11:10:07.059Z,7.42
2019-05-21T11:12:37.663Z,7.00
2019-05-21T11:15:08.271Z,6.30
2019-05-21T11:17:49.914Z,5.75
2019-05-21T11:20:10.011Z,5.70
2019-05-21T11:22:39.950Z,6.53
2019-05-21T11:25:09.919Z,6.47
2019-05-21T11:27:39.728Z,6.25
2019-05-21T11:30:10.282Z,5.78
2019-05-21T11:32:40.474Z,6.30
2019-05-21T11:35:11.947Z,6.10
2019-05-21T11:37:41.836Z,5.55
2019-05-21T11:40:12.620Z,5.42
2019-05-21T11:42:42.471Z,5.60
2019-05-21T11:45:12.333Z,6.00
2019-05-21T11:47:42.192Z,5.87
2019-05-21T11:50:12.319Z,5.92
2019-05-21T11:52:42.127Z,5.83
2019-05-21T11:55:12.273Z,6.25
2019-05-21T11:57:42.179Z,5.95
2019-05-21T12:00:14.001Z,6.00
2019-05-21T12:02:43.969Z,5.45
2019-05-21T12:05:13.844Z,6.10
2019-05-21T12:07:43.648Z,5.85
2019-05-21T12:10:13.716Z,5.78
2019-05-21T12:12:43.726Z,5.45
2019-05-21T12:15:15.177Z,6.10
2019-05-21T12:17:44.952Z,5.87
2019-05-21T12:20:15.546Z,6.05
2019-05-21T12:22:45.355Z,6.25
2019-05-21T12:25:15.231Z,5.15
2019-05-21T12:27:45.053Z,6.20
2019-05-21T12:30:15.331Z,5.47
2019-05-21T12:32:45.056Z,5.70
2019-05-21T12:35:15.006Z,5.87
2019-05-21T12:37:44.735Z,6.22
2019-05-21T12:40:15.310Z,5.78
2019-05-21T12:42:45.203Z,4.95
2019-05-21T12:45:15.289Z,4.87
2019-05-21T12:47:45.164Z,5.53
2019-05-21T12:50:15.442Z,5.87
2019-05-21T12:52:45.178Z,5.95
2019-05-21T12:55:15.046Z,5.70
2019-05-21T12:57:44.841Z,5.40
2019-05-21T13:00:15.708Z,5.87
2019-05-21T13:02:45.526Z,5.65
2019-05-21T13:05:15.747Z,6.15
2019-05-21T13:07:45.560Z,6.70
2019-05-21T13:10:15.623Z,5.37
2019-05-21T13:12:45.547Z,5.55
2019-05-21T13:15:15.486Z,6.05
2019-05-21T13:17:45.295Z,6.10
2019-05-21T13:20:16.077Z,5.85
2019-05-21T13:22:45.941Z,6.22
2019-05-21T13:25:15.908Z,5.80
2019-05-21T13:27:45.663Z,6.30
2019-05-21T13:30:15.757Z,5.33
2019-05-21T13:32:45.476Z,5.28
2019-05-21T13:35:15.620Z,6.62
2019-05-21T13:37:45.422Z,6.12
2019-05-21T13:40:15.915Z,6.53
2019-05-21T13:42:45.621Z,6.62
2019-05-21T13:45:15.551Z,7.30
2019-05-21T13:47:45.627Z,6.90
2019-05-21T13:50:17.299Z,6.42
2019-05-21T13:52:47.013Z,6.55
2019-05-21T13:55:16.903Z,6.33
2019-05-21T13:57:46.695Z,7.05
2019-05-21T14:00:24.917Z,7.00
2019-05-21T14:02:54.877Z,6.62
2019-05-21T14:05:26.070Z,6.85
2019-05-21T14:07:55.885Z,6.55
2019-05-21T14:10:26.199Z,6.37
2019-05-21T14:12:56.052Z,7.00
2019-05-21T14:15:25.859Z,6.92
2019-05-21T14:17:55.569Z,6.90
2019-05-21T14:20:25.389Z,6.87
2019-05-21T14:22:55.181Z,6.70
2019-05-21T14:25:25.059Z,6.40
2019-05-21T14:27:54.880Z,7.92
2019-05-21T14:30:24.862Z,7.58
2019-05-21T14:32:54.746Z,7.90
2019-05-21T14:35:24.639Z,7.85
2019-05-21T14:37:54.431Z,7.78
2019-05-21T14:40:31.552Z,7.50
2019-05-21T14:42:59.787Z,7.58
2019-05-21T14:45:32.899Z,7.75
2019-05-21T14:47:59.367Z,8.45
2019-05-21T14:50:29.270Z,7.87
2019-05-21T14:52:59.136Z,9.00
2019-05-21T14:55:28.960Z,7.78
2019-05-21T14:57:59.099Z,7.92
2019-05-21T15:00:36.804Z,8.55
2019-05-21T15:03:06.664Z,8.43
2019-05-21T15:05:36.549Z,7.58
2019-05-21T15:08:06.414Z,8.05
2019-05-21T15:10:47.955Z,8.20
2019-05-21T15:13:07.834Z,8.45
2019-05-21T15:15:37.652Z,7.95
2019-05-21T15:18:07.510Z,7.67
2019-05-21T15:20:48.867Z,8.18
2019-05-21T15:23:18.794Z,7.95
2019-05-21T15:25:48.600Z,7.83
2019-05-21T15:28:18.326Z,7.17
2019-05-21T15:30:48.216Z,7.17
2019-05-21T15:33:18.845Z,7.97
2019-05-21T15:35:48.655Z,7.80
2019-05-21T15:38:18.487Z,7.87
2019-05-21T15:41:06.646Z,6.55
2019-05-21T15:43:19.846Z,8.58
2019-05-21T15:45:49.651Z,8.30
2019-05-21T15:48:19.471Z,9.08
2019-05-21T15:50:49.355Z,8.28
2019-05-21T15:53:19.088Z,8.95
2019-05-21T15:55:48.883Z,8.85
2019-05-21T15:58:18.698Z,8.15
2019-05-21T16:00:48.497Z,7.65
2019-05-21T16:03:18.302Z,8.65
2019-05-21T16:05:48.170Z,8.80
2019-05-21T16:08:17.920Z,8.25
2019-05-21T16:10:47.641Z,8.25
2019-05-21T16:13:17.518Z,8.38
2019-05-21T16:15:47.390Z,9.35
2019-05-21T16:18:17.210Z,8.35
2019-05-21T16:20:47.080Z,8.28
2019-05-21T16:23:16.882Z,9.13
2019-05-21T16:25:46.692Z,9.35
2019-05-21T16:28:16.575Z,9.38
2019-05-21T16:30:46.440Z,9.40
2019-05-21T16:33:16.286Z,8.63
2019-05-21T16:35:46.046Z,9.68
2019-05-21T16:38:15.877Z,8.98
2019-05-21T16:40:45.712Z,9.38
2019-05-21T16:43:15.522Z,9.60
2019-05-21T16:45:45.325Z,9.10
2019-05-21T16:48:15.332Z,9.10
2019-05-21T16:50:45.163Z,9.88
2019-05-21T16:53:15.124Z,9.33
2019-05-21T16:55:44.963Z,8.28
2019-05-21T16:58:14.856Z,8.05
2019-05-21T17:00:44.643Z,7.90
2019-05-21T17:03:14.519Z,8.33
2019-05-21T17:05:44.343Z,8.93
2019-05-21T17:08:14.171Z,7.53
2019-05-21T17:10:43.972Z,7.62
2019-05-21T17:13:13.771Z,8.33
2019-05-21T17:15:43.679Z,8.53
2019-05-21T17:18:13.410Z,7.00
2019-05-21T17:20:43.127Z,8.05
2019-05-21T17:23:12.949Z,8.28
2019-05-21T17:25:43.715Z,8.45
2019-05-21T17:28:14.029Z,7.53
2019-05-21T17:30:43.863Z,8.05
2019-05-21T17:33:13.715Z,7.67
2019-05-21T17:35:43.737Z,6.87
2019-05-21T17:38:13.623Z,7.62
2019-05-21T17:40:43.637Z,7.20
2019-05-21T17:43:13.509Z,8.30
2019-05-21T17:45:44.601Z,7.65
2019-05-21T17:48:14.462Z,8.15
2019-05-21T17:50:44.673Z,7.70
2019-05-21T17:53:14.563Z,8.78
2019-05-21T17:55:44.462Z,7.85
2019-05-21T17:58:15.327Z,7.15
2019-05-21T18:00:48.681Z,7.30
2019-05-21T18:03:19.097Z,7.92
2019-05-21T18:05:49.730Z,6.85
2019-05-21T18:08:20.680Z,6.78
2019-05-21T18:10:52.282Z,7.25
2019-05-21T18:13:22.890Z,7.35
2019-05-21T18:15:52.943Z,7.40
2019-05-21T18:18:23.097Z,7.12
2019-05-21T18:20:53.078Z,7.65
2019-05-21T18:23:22.965Z,7.55
2019-05-21T18:25:52.852Z,6.97
2019-05-21T18:28:22.915Z,7.85
2019-05-21T18:30:52.661Z,7.08
2019-05-21T18:33:22.594Z,7.92
2019-05-21T18:35:52.486Z,7.92
2019-05-21T18:38:22.358Z,6.85
2019-05-21T18:40:52.312Z,8.10
2019-05-21T18:43:22.171Z,8.80
2019-05-21T18:45:52.052Z,7.45
2019-05-21T18:48:21.923Z,6.75
2019-05-21T18:50:51.826Z,7.70
2019-05-21T18:53:21.814Z,7.33
2019-05-21T18:55:51.643Z,8.28
2019-05-21T18:58:21.407Z,7.58
2019-05-21T19:00:51.300Z,7.75
2019-05-21T19:03:28.273Z,7.78
2019-05-21T19:05:52.710Z,8.65
2019-05-21T19:08:22.661Z,8.30
2019-05-21T19:10:52.481Z,8.65
2019-05-21T19:13:22.376Z,8.20
2019-05-21T19:15:52.322Z,7.42
2019-05-21T19:18:22.204Z,7.78
2019-05-21T19:20:52.098Z,8.00
2019-05-21T19:23:22.087Z,7.90
2019-05-21T19:25:52.081Z,6.58
2019-05-21T19:28:21.975Z,7.25
2019-05-21T19:30:51.923Z,7.58
2019-05-21T19:33:21.907Z,7.97
2019-05-21T19:35:51.790Z,8.80
2019-05-21T19:38:21.636Z,7.65
2019-05-21T19:40:51.557Z,7.05
2019-05-21T19:43:21.422Z,6.85
2019-05-21T19:45:52.187Z,6.47
2019-05-21T19:48:21.966Z,6.67
2019-05-21T19:50:51.789Z,7.80
2019-05-21T19:53:21.692Z,7.78
2019-05-21T19:55:51.516Z,7.78
2019-05-21T19:58:21.329Z,7.97
2019-05-21T20:00:53.367Z,7.60
2019-05-21T20:03:23.901Z,6.15
2019-05-21T20:05:54.187Z,7.22
2019-05-21T20:08:24.864Z,7.15
2019-05-21T20:10:54.864Z,7.67
2019-05-21T20:13:32.141Z,6.83
2019-05-21T20:15:56.630Z,6.85
2019-05-21T20:18:26.456Z,7.10
2019-05-21T20:20:57.899Z,6.50
2019-05-21T20:23:28.001Z,5.92
2019-05-21T20:25:58.449Z,6.30
2019-05-21T20:28:28.380Z,6.42
2019-05-21T20:30:58.222Z,6.08
2019-05-21T20:33:28.101Z,5.75
2019-05-21T20:35:58.922Z,6.55
2019-05-21T20:38:29.733Z,6.60
2019-05-21T20:41:00.550Z,7.60
2019-05-21T20:43:30.484Z,5.65
2019-05-21T20:46:01.028Z,7.03
2019-05-21T20:48:33.306Z,7.50
2019-05-21T20:51:03.866Z,6.85
2019-05-21T20:53:34.063Z,8.35
2019-05-21T20:56:04.591Z,8.65
2019-05-21T20:58:34.475Z,8.53
2019-05-21T21:01:05.642Z,11.05
2019-05-21T21:03:35.454Z,9.75
2019-05-21T21:06:05.347Z,9.13
2019-05-21T21:08:36.465Z,8.78
2019-05-21T21:11:08.912Z,8.78
2019-05-21T21:13:38.979Z,9.15
2019-05-21T21:16:09.650Z,8.03
2019-05-21T21:18:40.076Z,10.00
2019-05-21T21:21:10.235Z,9.75
2019-05-21T21:23:42.503Z,9.35
2019-05-21T21:26:13.265Z,9.48
2019-05-21T21:28:43.204Z,9.85
2019-05-21T21:31:13.184Z,10.13
2019-05-21T21:33:43.076Z,11.38
2019-05-21T21:36:12.911Z,12.07
2019-05-21T21:38:42.736Z,10.88
2019-05-21T21:41:12.904Z,11.75
2019-05-21T21:43:44.405Z,11.63
2019-05-21T21:46:15.847Z,11.35
2019-05-21T21:48:46.118Z,11.45
2019-05-21T21:51:17.591Z,12.63
2019-05-21T21:53:48.070Z,13.32
2019-05-21T21:56:18.334Z,12.37
2019-05-21T21:58:48.223Z,11.78
2019-05-21T22:01:53.914Z,12.63
2019-05-21T22:04:29.446Z,12.28
2019-05-21T22:06:59.880Z,13.08
2019-05-21T22:09:31.761Z,12.50
2019-05-21T22:12:03.370Z,13.93
2019-05-21T22:14:49.041Z,12.00
2019-05-21T22:17:09.194Z,12.98
2019-05-21T22:19:39.802Z,13.53
2019-05-21T22:22:11.763Z,11.78
2019-05-21T22:24:41.610Z,13.80
2019-05-21T22:27:11.615Z,12.75
2019-05-21T22:29:41.698Z,13.38
2019-05-21T22:32:11.585Z,12.65
2019-05-21T22:34:41.658Z,13.75
2019-05-21T22:37:14.849Z,13.53
2019-05-21T22:39:46.027Z,13.22
2019-05-21T22:42:16.848Z,13.22
2019-05-21T22:44:46.935Z,13.10
2019-05-21T22:47:17.234Z,14.38
2019-05-21T22:49:47.036Z,13.35
2019-05-21T22:52:17.040Z,13.68
2019-05-21T22:54:46.867Z,12.85
2019-05-21T22:57:16.747Z,13.40
2019-05-21T22:59:46.959Z,13.08
2019-05-21T23:02:22.031Z,14.33
2019-05-21T23:04:51.956Z,15.00
2019-05-21T23:07:22.880Z,13.68
2019-05-21T23:09:52.991Z,13.88
2019-05-21T23:12:23.343Z,14.33
2019-05-21T23:14:53.626Z,14.43
2019-05-21T23:17:26.166Z,13.20
2019-05-21T23:20:10.935Z,15.38
2019-05-21T23:22:44.998Z,14.50
2019-05-21T23:25:15.196Z,14.15
2019-05-21T23:27:45.572Z,13.93
2019-05-21T23:30:16.814Z,12.85
2019-05-21T23:32:46.883Z,14.70
2019-05-21T23:35:17.946Z,14.78
2019-05-21T23:37:48.922Z,14.35
2019-05-21T23:40:18.860Z,14.23
2019-05-21T23:42:49.051Z,13.65
2019-05-21T23:45:19.577Z,14.05
2019-05-21T23:47:49.335Z,12.37
2019-05-21T23:50:20.198Z,13.30
2019-05-21T23:52:51.163Z,12.25
2019-05-21T23:55:21.358Z,11.68
2019-05-21T23:57:51.928Z,11.10
